Jill P. Harvey — WDC2466 — position and weather

sailwx.info

Track history (hours):
 
Tides and Currents Weather Stations Pressure Air Temp Water Temp Dewpoint Dewpoint Depression Visibility Wind Speed Wind Dir Waves Ship Positions

Jill P. Harvey

Owner: Florida Marine, LLC, Mandeville, LA. More information available from US FCC via Universal Licensing System and Coast Guard Vessel Documentation Center.

Last reported at 2018-Jun-14 02:29 UTC. Time now 2018-Jun-23 11:48 UTC.
Position N 31°54' W 091°12'.
Warning: this ship's position is 9 days out of date.

Length 37 m; draft 3.2 m.

Type: Towing. MMSI: 366993550.

Date/timePositionNaut miles runAvg speedWind from/ knotsBaromVisibWave heightAir tempDewpointWater temp
2018-Jun-14 02:29N 31°54' W 091°12'5 9.6
2018-Jun-14 02:01N 31°58' W 091°11'5 8.9
2018-Jun-14 01:26N 32°00' W 091°05'4 9.2
2018-Jun-14 01:00N 32°04' W 091°03'4 8.9
2018-Jun-14 00:31N 32°07' W 091°06'4 8.4
2018-Jun-14 00:01N 32°07' W 091°02'5 9.5
2018-Jun-13 23:31N 32°12' W 090°60'5 9.5
2018-Jun-13 23:00N 32°16' W 090°58'5 9.4
2018-Jun-13 22:31N 32°20' W 090°54'4 8.6
2018-Jun-13 22:01N 32°21' W 090°59'4 8.2
2018-Jun-13 21:30N 32°25' W 090°60'5 9.6
2018-Jun-13 21:00N 32°27' W 091°05'5 8.6
2018-Jun-13 20:26N 32°32' W 091°06'4 9.1
2018-Jun-13 20:00N 32°35' W 091°08'4 8.4
2018-Jun-13 19:29N 32°40' W 091°08'  
2018-Jun-07 21:12N 45°36' W 122°27'0 0.0
2018-Jun-07 21:00N 45°36' W 122°27'0 0.0
2018-Jun-07 20:30N 45°36' W 122°27'0 0.0
2018-Jun-07 20:00N 45°36' W 122°27'0 0.0
2018-Jun-07 19:29N 45°36' W 122°27'0 0.0
2018-Jun-07 19:00N 45°36' W 122°27'0 0.0
2018-Jun-07 18:30N 45°36' W 122°27'0 0.0
2018-Jun-07 18:01N 45°36' W 122°27'0 0.0
2018-Jun-07 17:30N 45°36' W 122°27'0 0.0
2018-Jun-07 17:00N 45°36' W 122°27'0 0.0
2018-Jun-05 16:32N 45°36' W 122°27'0 0.0
2018-Jun-05 16:30N 45°36' W 122°27'  
Track history (hours):
 
Tides and Currents Weather Stations Pressure Air Temp Water Temp Dewpoint Dewpoint Depression Visibility Wind Speed Wind Dir Waves Ship Positions

Jill P. Harvey

Owner: Florida Marine, LLC, Mandeville, LA. More information available from US FCC via Universal Licensing System and Coast Guard Vessel Documentation Center.

Last reported at 2018-Jun-14 02:29 UTC. Time now 2018-Jun-23 11:48 UTC.
Position N 31°54' W 091°12'.
Warning: this ship's position is 9 days out of date.

Length 37 m; draft 3.2 m.

Type: Towing. MMSI: 366993550.

Date/timePositionNaut miles runAvg speedWind from/ knotsBaromVisibWave heightAir tempDewpointWater temp
2018-Jun-14 02:29N 31°54' W 091°12'5 9.6
2018-Jun-14 02:01N 31°58' W 091°11'5 8.9
2018-Jun-14 01:26N 32°00' W 091°05'4 9.2
2018-Jun-14 01:00N 32°04' W 091°03'4 8.9
2018-Jun-14 00:31N 32°07' W 091°06'4 8.4
2018-Jun-14 00:01N 32°07' W 091°02'5 9.5
2018-Jun-13 23:31N 32°12' W 090°60'5 9.5
2018-Jun-13 23:00N 32°16' W 090°58'5 9.4
2018-Jun-13 22:31N 32°20' W 090°54'4 8.6
2018-Jun-13 22:01N 32°21' W 090°59'4 8.2
2018-Jun-13 21:30N 32°25' W 090°60'5 9.6
2018-Jun-13 21:00N 32°27' W 091°05'5 8.6
2018-Jun-13 20:26N 32°32' W 091°06'4 9.1
2018-Jun-13 20:00N 32°35' W 091°08'4 8.4
2018-Jun-13 19:29N 32°40' W 091°08'  
2018-Jun-07 21:12N 45°36' W 122°27'0 0.0
2018-Jun-07 21:00N 45°36' W 122°27'0 0.0
2018-Jun-07 20:30N 45°36' W 122°27'0 0.0
2018-Jun-07 20:00N 45°36' W 122°27'0 0.0
2018-Jun-07 19:29N 45°36' W 122°27'0 0.0
2018-Jun-07 19:00N 45°36' W 122°27'0 0.0
2018-Jun-07 18:30N 45°36' W 122°27'0 0.0
2018-Jun-07 18:01N 45°36' W 122°27'0 0.0
2018-Jun-07 17:30N 45°36' W 122°27'0 0.0
2018-Jun-07 17:00N 45°36' W 122°27'0 0.0
2018-Jun-05 16:32N 45°36' W 122°27'0 0.0
2018-Jun-05 16:30N 45°36' W 122°27'  

Dump ship's entire track history